Time;durP1;ratioP1;P1;durP2;ratioP2;P2;SDS_P1;SDS_P2;PMS_P1;PMS_P2;Temp;Humidity;BMP_temperature;BMP_pressure;BME280_temperature;BME280_humidity;BME280_pressure;Samples;Min_cycle;Max_cycle;Signal;HPM_P1;HPM_P2
2021/09/06 00:01:07;;;;;;;12.07;8.93;;;13.00;99.90;;;;;;5106889;27;20280;-51
2021/09/06 00:03:34;;;;;;;16.67;9.60;;;13.00;99.90;;;;;;5124138;27;20205;-44
2021/09/06 00:06:01;;;;;;;11.73;8.83;;;12.90;99.90;;;;;;5113286;27;20205;-51
2021/09/06 00:08:29;;;;;;;13.27;9.03;;;12.90;99.90;;;;;;5124166;27;20188;-43
2021/09/06 00:11:04;;;;;;;12.47;9.17;;;12.80;99.90;;;;;;5121807;27;20199;-50
2021/09/06 00:13:30;;;;;;;13.30;9.63;;;12.80;99.90;;;;;;5105333;28;20212;-45
2021/09/06 00:15:57;;;;;;;11.33;8.77;;;12.80;99.90;;;;;;5118007;27;20200;-53
2021/09/06 00:18:25;;;;;;;11.90;8.77;;;12.80;99.90;;;;;;5114321;27;20221;-44
2021/09/06 00:20:52;;;;;;;12.23;9.20;;;12.70;99.90;;;;;;5100954;27;20212;-52
2021/09/06 00:23:19;;;;;;;10.10;8.13;;;12.60;99.90;;;;;;5114886;27;21057;-45
2021/09/06 00:25:47;;;;;;;12.37;9.13;;;12.60;99.90;;;;;;5123825;27;20589;-53
2021/09/06 00:28:13;;;;;;;12.23;8.87;;;12.60;99.90;;;;;;5120860;27;20188;-45
2021/09/06 00:30:40;;;;;;;12.40;8.73;;;12.60;99.90;;;;;;5104376;27;20202;-44
2021/09/06 00:33:07;;;;;;;11.80;8.90;;;12.60;99.90;;;;;;5111479;27;20945;-44
2021/09/06 00:35:34;;;;;;;13.47;8.73;;;12.50;99.90;;;;;;5098361;27;20622;-44
2021/09/06 00:38:01;;;;;;;12.20;8.67;;;12.50;99.90;;;;;;5119356;28;20212;-51
2021/09/06 00:40:28;;;;;;;12.70;8.87;;;12.50;99.90;;;;;;5123980;27;20177;-48
2021/09/06 00:42:57;;;;;;;11.07;8.67;;;12.50;99.90;;;;;;5121685;27;20196;-51
2021/09/06 00:45:24;;;;;;;10.33;8.33;;;12.50;99.90;;;;;;5118651;27;20226;-47
2021/09/06 00:47:51;;;;;;;11.63;8.17;;;12.50;99.90;;;;;;5122025;27;20558;-47
2021/09/06 00:50:18;;;;;;;16.20;9.40;;;12.50;99.90;;;;;;5120555;28;20181;-52
2021/09/06 00:52:47;;;;;;;10.53;8.20;;;12.60;99.90;;;;;;5110526;27;20554;-45
2021/09/06 00:55:16;;;;;;;10.23;8.27;;;12.50;99.90;;;;;;5116922;27;20842;-48
2021/09/06 00:57:43;;;;;;;17.87;8.63;;;12.40;99.90;;;;;;5127436;27;20625;-45
2021/09/06 01:00:13;;;;;;;11.63;8.17;;;12.40;99.90;;;;;;5120644;27;20185;-50
2021/09/06 01:02:41;;;;;;;9.90;7.60;;;12.40;99.90;;;;;;5114101;27;20857;-45
2021/09/06 01:05:11;;;;;;;10.77;7.50;;;12.20;99.90;;;;;;5124287;27;20208;-46
2021/09/06 01:08:10;;;;;;;10.23;7.30;;;12.30;99.90;;;;;;5109285;27;20192;-45
2021/09/06 01:10:56;;;;;;;8.43;7.10;;;12.20;99.90;;;;;;5124999;27;20207;-53
2021/09/06 01:13:41;;;;;;;10.20;8.07;;;12.10;99.90;;;;;;5118284;27;20236;-50
2021/09/06 01:16:10;;;;;;;14.97;8.40;;;12.10;99.90;;;;;;5124884;27;20212;-48
2021/09/06 01:18:37;;;;;;;13.13;8.50;;;12.20;99.90;;;;;;5126353;27;20228;-45
2021/09/06 01:21:04;;;;;;;12.47;7.93;;;12.20;99.90;;;;;;5122634;27;20180;-52
2021/09/06 01:23:53;;;;;;;11.10;7.90;;;12.30;99.90;;;;;;5100063;27;20251;-53
2021/09/06 01:26:26;;;;;;;10.23;7.83;;;12.30;99.90;;;;;;5125734;27;20197;-48
2021/09/06 01:28:53;;;;;;;10.70;7.83;;;12.20;99.90;;;;;;5123066;27;20185;-52
2021/09/06 01:31:22;;;;;;;12.70;8.47;;;12.20;99.90;;;;;;5122147;27;20280;-43
2021/09/06 01:33:50;;;;;;;9.30;7.73;;;12.10;99.90;;;;;;5112386;27;20224;-44
2021/09/06 01:36:19;;;;;;;8.87;7.20;;;12.00;99.90;;;;;;5124027;27;20943;-50
2021/09/06 01:38:46;;;;;;;11.57;7.63;;;12.00;99.90;;;;;;5104924;27;20212;-47
2021/09/06 01:41:12;;;;;;;10.37;7.70;;;11.90;99.90;;;;;;5124218;27;20852;-45
2021/09/06 01:43:41;;;;;;;9.27;7.10;;;11.90;99.90;;;;;;5118278;27;20718;-48
2021/09/06 01:46:07;;;;;;;12.27;7.40;;;12.00;99.90;;;;;;5121935;27;20277;-50
2021/09/06 01:48:36;;;;;;;11.57;8.20;;;11.90;99.90;;;;;;5122843;27;20215;-45
2021/09/06 01:51:02;;;;;;;12.20;7.80;;;11.80;99.90;;;;;;5121887;27;20280;-52
2021/09/06 01:53:29;;;;;;;11.00;7.53;;;11.80;99.90;;;;;;5109989;27;20217;-45
2021/09/06 01:56:00;;;;;;;10.43;7.90;;;11.80;99.90;;;;;;5121215;27;20197;-52
2021/09/06 01:58:26;;;;;;;10.37;6.90;;;11.70;99.90;;;;;;5126709;27;20572;-44
2021/09/06 02:00:54;;;;;;;11.47;7.97;;;11.60;99.90;;;;;;5121005;27;20196;-52
2021/09/06 02:03:29;;;;;;;12.37;7.53;;;11.60;99.90;;;;;;5105311;28;20220;-44
2021/09/06 02:05:57;;;;;;;10.03;7.47;;;11.60;99.90;;;;;;5113701;27;20204;-52
2021/09/06 02:08:34;;;;;;;12.13;7.63;;;11.70;99.90;;;;;;5125002;27;20192;-47
2021/09/06 02:11:01;;;;;;;10.70;7.50;;;11.70;99.90;;;;;;5109465;27;20644;-51
2021/09/06 02:13:28;;;;;;;10.83;8.23;;;11.70;99.90;;;;;;5123390;27;20303;-49
2021/09/06 02:15:56;;;;;;;11.17;7.70;;;11.70;99.90;;;;;;5132670;27;20195;-53
2021/09/06 02:18:27;;;;;;;8.97;7.37;;;11.70;99.90;;;;;;5124523;27;20224;-46
2021/09/06 02:20:56;;;;;;;9.33;6.83;;;11.60;99.90;;;;;;5115757;27;20396;-48
2021/09/06 02:23:23;;;;;;;13.87;7.73;;;11.60;99.90;;;;;;5117325;27;20224;-48
2021/09/06 02:25:54;;;;;;;10.13;7.13;;;11.60;99.90;;;;;;5116549;27;20232;-47
2021/09/06 02:28:21;;;;;;;11.17;7.10;;;11.50;99.90;;;;;;5120867;27;20181;-46
2021/09/06 02:30:49;;;;;;;10.43;6.93;;;11.50;99.90;;;;;;5103253;28;20220;-51
2021/09/06 02:33:24;;;;;;;7.67;6.63;;;11.50;99.90;;;;;;5105362;27;20687;-47
2021/09/06 02:36:08;;;;;;;9.23;7.50;;;11.60;99.90;;;;;;5113312;27;20199;-45
2021/09/06 02:38:35;;;;;;;8.93;6.10;;;11.60;99.90;;;;;;5124434;27;20219;-48
2021/09/06 02:41:08;;;;;;;9.73;7.37;;;11.60;99.90;;;;;;5115157;27;20208;-45
2021/09/06 02:43:35;;;;;;;10.30;7.13;;;11.60;99.90;;;;;;5123463;27;20223;-52
2021/09/06 02:46:02;;;;;;;11.60;6.80;;;11.60;99.90;;;;;;5131556;27;20204;-54
2021/09/06 02:48:31;;;;;;;9.90;7.20;;;11.60;99.90;;;;;;5146104;27;20548;-50
2021/09/06 02:50:57;;;;;;;10.60;7.47;;;11.60;99.90;;;;;;5113376;27;20204;-54
2021/09/06 02:53:25;;;;;;;9.13;7.00;;;11.50;99.90;;;;;;5116682;27;20224;-50
2021/09/06 02:55:53;;;;;;;10.73;7.17;;;11.40;99.90;;;;;;5110546;27;20696;-48
2021/09/06 02:58:19;;;;;;;10.37;7.97;;;11.30;99.90;;;;;;5120316;27;20211;-45
2021/09/06 03:00:50;;;;;;;11.50;8.00;;;11.20;99.90;;;;;;5122721;27;20283;-47
2021/09/06 03:03:17;;;;;;;13.37;7.80;;;11.30;99.90;;;;;;5119109;27;20347;-53
2021/09/06 03:05:46;;;;;;;11.80;8.03;;;11.30;99.90;;;;;;5124090;27;20200;-47
2021/09/06 03:08:15;;;;;;;9.07;7.10;;;11.20;99.90;;;;;;5106242;27;20995;-49
2021/09/06 03:10:43;;;;;;;12.00;7.27;;;11.10;99.90;;;;;;5123724;27;20192;-48
2021/09/06 03:13:09;;;;;;;10.50;8.00;;;11.10;99.90;;;;;;5115176;27;20203;-51
2021/09/06 03:15:36;;;;;;;11.03;7.80;;;11.00;99.90;;;;;;5128492;27;20196;-49
2021/09/06 03:18:03;;;;;;;10.07;8.20;;;11.00;99.90;;;;;;5119061;27;20292;-47
2021/09/06 03:20:51;;;;;;;10.07;6.93;;;11.00;99.90;;;;;;5123847;27;20265;-48
2021/09/06 03:23:18;;;;;;;12.13;8.10;;;10.90;99.90;;;;;;5112051;27;20895;-50
2021/09/06 03:25:46;;;;;;;11.57;7.43;;;10.90;99.90;;;;;;5120117;27;20199;-47
2021/09/06 03:28:13;;;;;;;8.30;6.60;;;10.80;99.90;;;;;;5109097;27;20200;-47
2021/09/06 03:30:43;;;;;;;9.27;7.03;;;10.80;99.90;;;;;;5123225;27;20196;-49
2021/09/06 03:33:13;;;;;;;8.37;6.93;;;10.80;99.90;;;;;;5119814;27;20851;-49
2021/09/06 03:35:43;;;;;;;10.20;6.90;;;10.70;99.90;;;;;;5123833;27;20310;-49
2021/09/06 03:38:13;;;;;;;11.67;7.40;;;10.70;99.90;;;;;;5120128;27;20201;-51
2021/09/06 03:40:40;;;;;;;16.07;7.40;;;10.70;99.90;;;;;;5117231;27;20905;-45
2021/09/06 03:43:07;;;;;;;13.33;7.37;;;10.70;99.90;;;;;;5102001;27;20599;-51
2021/09/06 03:45:35;;;;;;;13.73;8.07;;;10.70;99.90;;;;;;5116511;27;20189;-44
2021/09/06 03:48:02;;;;;;;12.30;8.63;;;10.70;99.90;;;;;;5135210;27;20204;-48
2021/09/06 03:50:30;;;;;;;11.97;8.03;;;10.70;99.90;;;;;;5119454;27;20185;-50
2021/09/06 03:52:58;;;;;;;13.87;7.70;;;10.70;99.90;;;;;;5123585;27;20193;-49
2021/09/06 03:55:26;;;;;;;13.63;8.30;;;10.70;99.90;;;;;;5114108;27;20212;-46
2021/09/06 03:57:53;;;;;;;21.43;10.40;;;10.60;99.90;;;;;;5122750;27;20216;-50
2021/09/06 04:00:20;;;;;;;16.17;9.90;;;10.70;99.90;;;;;;5110622;27;20204;-46
2021/09/06 04:02:50;;;;;;;20.40;11.37;;;10.70;99.90;;;;;;5120072;27;20204;-52
2021/09/06 04:05:22;;;;;;;26.67;11.27;;;10.60;99.90;;;;;;5120470;27;20223;-42
2021/09/06 04:07:50;;;;;;;29.07;11.67;;;10.60;99.90;;;;;;5112691;27;20201;-46
2021/09/06 04:10:17;;;;;;;35.33;11.30;;;10.60;99.90;;;;;;5104639;27;20204;-46
2021/09/06 04:12:46;;;;;;;29.03;12.33;;;10.70;99.90;;;;;;5121707;27;20971;-46
2021/09/06 04:15:13;;;;;;;31.80;11.63;;;10.70;99.90;;;;;;5107208;27;20232;-53
2021/09/06 04:17:40;;;;;;;28.70;11.53;;;10.60;99.90;;;;;;5120238;27;20200;-48
2021/09/06 04:20:09;;;;;;;32.00;12.10;;;10.60;99.90;;;;;;5122731;27;20287;-54
2021/09/06 04:22:39;;;;;;;25.80;10.87;;;10.60;99.90;;;;;;5113729;27;20994;-42
2021/09/06 04:25:06;;;;;;;26.43;11.10;;;10.60;99.90;;;;;;5115242;27;20773;-45
2021/09/06 04:27:33;;;;;;;25.50;11.40;;;10.50;99.90;;;;;;5119048;27;20972;-43
2021/09/06 04:30:01;;;;;;;30.60;11.33;;;10.50;99.90;;;;;;5110875;27;20651;-48
2021/09/06 04:32:30;;;;;;;27.37;13.37;;;10.40;99.90;;;;;;5102850;27;20201;-50
2021/09/06 04:34:57;;;;;;;25.33;12.40;;;10.40;99.90;;;;;;5116987;28;20244;-47
2021/09/06 04:37:24;;;;;;;35.40;13.10;;;10.40;99.90;;;;;;5120270;27;20201;-53
2021/09/06 04:39:51;;;;;;;31.07;13.70;;;10.40;99.90;;;;;;5123371;28;20224;-43
2021/09/06 04:42:18;;;;;;;20.77;12.33;;;10.40;99.90;;;;;;5113193;27;20204;-52
2021/09/06 04:44:45;;;;;;;28.53;12.43;;;10.40;99.90;;;;;;5111157;27;20224;-44
2021/09/06 04:47:14;;;;;;;34.73;12.70;;;10.40;99.90;;;;;;5121111;27;20220;-51
2021/09/06 04:49:41;;;;;;;19.37;11.87;;;10.40;99.90;;;;;;5118524;27;20189;-45
2021/09/06 04:52:08;;;;;;;22.73;11.87;;;10.40;99.90;;;;;;5122562;28;20666;-52
2021/09/06 04:54:35;;;;;;;24.67;12.50;;;10.40;99.90;;;;;;5118378;28;20945;-43
2021/09/06 04:57:02;;;;;;;20.77;12.97;;;10.40;99.90;;;;;;5115832;27;20562;-42
2021/09/06 04:59:29;;;;;;;20.57;13.37;;;10.40;99.90;;;;;;5117430;28;20200;-48
2021/09/06 05:01:55;;;;;;;20.57;12.00;;;10.40;99.90;;;;;;5112992;27;20207;-49
2021/09/06 05:04:23;;;;;;;30.37;12.80;;;10.50;99.90;;;;;;5117425;28;20299;-52
2021/09/06 05:06:50;;;;;;;19.33;11.50;;;10.50;99.90;;;;;;5117102;27;20201;-43
2021/09/06 05:09:19;;;;;;;28.23;12.67;;;10.50;99.90;;;;;;5116772;27;20673;-54
2021/09/06 05:11:47;;;;;;;27.13;12.40;;;10.50;99.90;;;;;;5113052;27;20212;-44
2021/09/06 05:14:14;;;;;;;21.00;12.07;;;10.50;99.90;;;;;;5115704;27;20693;-53
2021/09/06 05:16:43;;;;;;;28.27;13.63;;;10.50;99.90;;;;;;5101867;27;20248;-43
2021/09/06 05:19:09;;;;;;;24.67;13.00;;;10.60;99.90;;;;;;5115706;28;20224;-54
2021/09/06 05:21:37;;;;;;;22.03;12.70;;;10.60;99.90;;;;;;5106326;27;20267;-46
2021/09/06 05:24:06;;;;;;;17.60;12.13;;;10.70;99.90;;;;;;5113969;27;20559;-47
2021/09/06 05:26:33;;;;;;;17.43;11.77;;;10.70;99.90;;;;;;5113911;27;20280;-46
2021/09/06 05:29:00;;;;;;;16.03;10.73;;;10.80;99.90;;;;;;5113357;27;20666;-46
2021/09/06 05:31:29;;;;;;;20.43;12.07;;;10.80;99.90;;;;;;5105519;27;21103;-50
2021/09/06 05:33:55;;;;;;;17.60;11.53;;;10.80;99.90;;;;;;5113781;27;20300;-49
2021/09/06 05:36:22;;;;;;;20.47;12.70;;;10.90;99.90;;;;;;5110365;28;20201;-48
2021/09/06 05:38:51;;;;;;;18.77;12.57;;;10.90;99.90;;;;;;5090043;27;20811;-53
2021/09/06 05:41:26;;;;;;;19.40;13.87;;;11.00;99.90;;;;;;5122834;27;20562;-48
2021/09/06 05:43:53;;;;;;;17.17;12.00;;;11.10;99.90;;;;;;5100590;27;20291;-49
2021/09/06 05:46:21;;;;;;;20.23;12.60;;;11.10;99.90;;;;;;5106610;27;20665;-47
2021/09/06 05:48:48;;;;;;;16.03;11.20;;;11.20;99.90;;;;;;5117589;27;20640;-53
2021/09/06 05:51:15;;;;;;;17.10;11.57;;;11.20;99.90;;;;;;5114680;27;20221;-50
2021/09/06 05:53:57;;;;;;;18.27;12.97;;;11.30;99.90;;;;;;5108948;27;20221;-46
2021/09/06 05:56:25;;;;;;;30.77;14.00;;;11.30;99.90;;;;;;5121769;27;20229;-45
2021/09/06 05:58:53;;;;;;;42.90;13.73;;;11.40;99.90;;;;;;5101381;27;20204;-43
2021/09/06 06:01:20;;;;;;;63.27;14.43;;;11.40;99.90;;;;;;5117651;27;20189;-45
2021/09/06 06:03:47;;;;;;;32.33;15.37;;;11.40;99.90;;;;;;5107312;27;20236;-47
2021/09/06 06:06:19;;;;;;;39.63;14.30;;;11.50;99.90;;;;;;5117607;27;20220;-48
2021/09/06 06:08:47;;;;;;;27.07;14.10;;;11.50;99.90;;;;;;5119471;27;20207;-48
2021/09/06 06:11:15;;;;;;;23.63;14.63;;;11.50;99.90;;;;;;5114894;27;20211;-53
2021/09/06 06:13:43;;;;;;;24.53;14.53;;;11.50;99.90;;;;;;5093773;27;20630;-48
2021/09/06 06:16:10;;;;;;;36.13;14.23;;;11.60;99.90;;;;;;5125455;27;20234;-44
2021/09/06 06:18:38;;;;;;;30.17;14.20;;;11.60;99.90;;;;;;5119306;27;20244;-46
2021/09/06 06:21:07;;;;;;;33.87;14.37;;;11.60;99.90;;;;;;5119103;27;20238;-46
2021/09/06 06:23:52;;;;;;;33.37;13.07;;;11.70;99.90;;;;;;5094521;27;21329;-43
2021/09/06 06:26:35;;;;;;;24.97;12.23;;;11.70;99.90;;;;;;5104434;27;20232;-52
2021/09/06 06:29:05;;;;;;;23.23;11.43;;;11.70;99.90;;;;;;5113276;27;20204;-52
2021/09/06 06:31:32;;;;;;;17.53;12.27;;;11.70;99.90;;;;;;5103846;27;20974;-43
2021/09/06 06:34:00;;;;;;;23.50;14.23;;;11.80;99.90;;;;;;5111584;27;20223;-45
2021/09/06 06:36:27;;;;;;;27.80;13.03;;;11.90;99.90;;;;;;5113755;27;20185;-44
2021/09/06 06:38:54;;;;;;;22.37;12.07;;;12.00;99.90;;;;;;5117460;27;20209;-48
2021/09/06 06:41:21;;;;;;;20.87;12.47;;;12.00;99.90;;;;;;5123897;27;20204;-51
2021/09/06 06:43:54;;;;;;;20.93;13.27;;;12.10;99.90;;;;;;5118818;27;20213;-43
2021/09/06 06:46:21;;;;;;;16.73;11.30;;;12.20;99.90;;;;;;5116156;27;20209;-51
2021/09/06 06:48:50;;;;;;;16.87;11.67;;;12.30;99.90;;;;;;5106973;27;20195;-48
2021/09/06 06:51:22;;;;;;;17.90;12.77;;;12.40;99.90;;;;;;5119992;27;20265;-53
2021/09/06 06:53:49;;;;;;;15.77;11.37;;;12.50;99.90;;;;;;5119543;27;20877;-45
2021/09/06 06:56:18;;;;;;;18.57;12.07;;;12.60;99.90;;;;;;5104006;27;20202;-53
2021/09/06 06:58:44;;;;;;;14.27;11.13;;;12.70;99.90;;;;;;5117352;27;20263;-46
2021/09/06 07:01:16;;;;;;;17.00;10.53;;;12.80;99.90;;;;;;5116662;27;20249;-54
2021/09/06 07:03:46;;;;;;;16.20;10.50;;;12.90;99.90;;;;;;5123768;27;20208;-48
2021/09/06 07:06:13;;;;;;;16.17;11.93;;;13.00;99.90;;;;;;5112081;27;20278;-50
2021/09/06 07:08:41;;;;;;;20.90;12.77;;;13.10;99.90;;;;;;5119907;27;20984;-46
2021/09/06 07:11:07;;;;;;;17.97;12.03;;;13.20;99.90;;;;;;5108520;27;20205;-49
2021/09/06 07:13:35;;;;;;;27.40;17.33;;;13.30;99.90;;;;;;5114156;27;20273;-45
2021/09/06 07:16:04;;;;;;;24.53;14.90;;;13.40;99.90;;;;;;5118075;27;20733;-50
2021/09/06 07:18:33;;;;;;;21.20;13.37;;;13.50;99.90;;;;;;5111172;27;20960;-48
2021/09/06 07:21:00;;;;;;;22.90;13.70;;;13.50;99.90;;;;;;5113425;27;20211;-44
2021/09/06 07:23:29;;;;;;;26.60;16.73;;;13.60;99.90;;;;;;5111220;27;20224;-46
2021/09/06 07:25:56;;;;;;;23.90;15.50;;;13.60;99.90;;;;;;5119218;27;20199;-47
2021/09/06 07:28:22;;;;;;;24.97;15.40;;;13.80;99.90;;;;;;5100190;27;20296;-51
2021/09/06 07:30:49;;;;;;;27.23;15.00;;;13.80;99.90;;;;;;5120518;27;20662;-49
2021/09/06 07:33:16;;;;;;;24.50;14.87;;;13.90;99.90;;;;;;5112708;27;20283;-46
2021/09/06 07:35:44;;;;;;;29.60;16.27;;;14.00;99.90;;;;;;5110057;27;20208;-53
2021/09/06 07:38:11;;;;;;;23.17;14.40;;;14.10;99.90;;;;;;5115065;27;20200;-49
2021/09/06 07:40:37;;;;;;;20.37;13.67;;;14.10;99.90;;;;;;5112391;27;20202;-48
2021/09/06 07:43:04;;;;;;;26.87;15.53;;;14.20;99.90;;;;;;5096174;27;20238;-48
2021/09/06 07:45:31;;;;;;;23.97;13.57;;;14.30;99.90;;;;;;5111646;27;20670;-48
2021/09/06 07:47:58;;;;;;;22.27;14.27;;;14.50;99.90;;;;;;5098896;27;20201;-49
2021/09/06 07:50:47;;;;;;;23.93;15.30;;;14.60;99.90;;;;;;5107369;27;20257;-45
2021/09/06 07:53:14;;;;;;;28.03;16.30;;;14.80;99.90;;;;;;5122450;27;20203;-46
2021/09/06 07:55:41;;;;;;;23.43;14.67;;;14.90;99.90;;;;;;5105544;27;20241;-51
2021/09/06 07:58:08;;;;;;;25.63;14.70;;;14.90;99.90;;;;;;5111708;27;20736;-43
2021/09/06 08:00:37;;;;;;;21.77;14.23;;;15.10;99.90;;;;;;5104610;27;20235;-46
2021/09/06 08:03:03;;;;;;;23.40;15.07;;;15.20;99.90;;;;;;5109716;27;20295;-43
2021/09/06 08:05:34;;;;;;;25.60;15.77;;;15.30;99.90;;;;;;5104396;27;20200;-52
2021/09/06 08:08:07;;;;;;;19.67;13.20;;;15.30;99.90;;;;;;5113575;27;20204;-46
2021/09/06 08:10:35;;;;;;;24.50;13.27;;;15.30;99.90;;;;;;5116990;27;20237;-44
2021/09/06 08:13:02;;;;;;;21.00;13.70;;;15.30;99.90;;;;;;5104111;27;20189;-43
2021/09/06 08:15:31;;;;;;;19.80;14.23;;;15.30;99.90;;;;;;5121625;27;20188;-47
2021/09/06 08:18:03;;;;;;;21.33;13.97;;;15.40;99.90;;;;;;5111950;27;20196;-49
2021/09/06 08:20:30;;;;;;;25.67;14.63;;;15.50;99.90;;;;;;5103634;27;20212;-47
2021/09/06 08:22:57;;;;;;;22.63;13.83;;;15.60;99.90;;;;;;5088956;27;20204;-52
2021/09/06 08:25:25;;;;;;;19.77;12.73;;;15.60;99.90;;;;;;5103917;27;20236;-43
2021/09/06 08:27:52;;;;;;;21.57;13.37;;;15.70;99.90;;;;;;5105293;27;20682;-44
2021/09/06 08:30:19;;;;;;;18.40;12.57;;;15.90;99.90;;;;;;5109703;27;20197;-48
2021/09/06 08:32:49;;;;;;;20.13;13.87;;;15.90;99.90;;;;;;5111910;27;20204;-48
2021/09/06 08:35:16;;;;;;;17.53;13.07;;;16.00;99.90;;;;;;5099244;27;20248;-51
2021/09/06 08:37:44;;;;;;;18.90;13.23;;;16.10;99.90;;;;;;5108605;27;20669;-45
2021/09/06 08:40:13;;;;;;;18.50;12.60;;;16.20;99.90;;;;;;5116673;28;20208;-52
2021/09/06 08:42:41;;;;;;;19.87;11.90;;;16.30;99.90;;;;;;5110060;28;20203;-46
2021/09/06 08:45:11;;;;;;;20.00;13.03;;;16.40;99.90;;;;;;5118303;27;20291;-48
2021/09/06 08:47:39;;;;;;;20.30;13.13;;;16.50;99.90;;;;;;5120384;27;20257;-50
2021/09/06 08:50:09;;;;;;;16.70;11.90;;;16.50;99.90;;;;;;5095975;27;20288;-49
2021/09/06 08:52:37;;;;;;;15.63;11.80;;;16.50;99.90;;;;;;5114645;27;20204;-54
2021/09/06 08:55:04;;;;;;;16.30;11.33;;;16.70;99.90;;;;;;5118512;27;20292;-48
2021/09/06 08:57:32;;;;;;;18.77;12.20;;;16.80;99.90;;;;;;5111614;28;20197;-46
2021/09/06 09:00:03;;;;;;;18.10;11.40;;;16.90;99.90;;;;;;5117225;28;20654;-44
2021/09/06 09:02:41;;;;;;;17.10;11.43;;;17.00;99.90;;;;;;5107564;28;20193;-48
2021/09/06 09:05:23;;;;;;;14.77;11.00;;;17.10;99.90;;;;;;5112056;27;20255;-49
2021/09/06 09:08:09;;;;;;;18.67;10.57;;;17.20;99.90;;;;;;5095657;27;20217;-50
2021/09/06 09:11:01;;;;;;;13.77;10.13;;;17.20;99.90;;;;;;5097160;27;20678;-53
2021/09/06 09:14:11;;;;;;;17.93;11.10;;;17.30;99.90;;;;;;5098938;27;20225;-49
2021/09/06 09:16:58;;;;;;;17.77;11.83;;;17.40;99.90;;;;;;5120952;27;20211;-47
2021/09/06 09:19:48;;;;;;;15.57;11.47;;;17.40;99.90;;;;;;5110490;27;20228;-45
2021/09/06 09:22:31;;;;;;;17.90;10.63;;;17.50;99.90;;;;;;5109192;27;20209;-48
2021/09/06 09:25:18;;;;;;;17.03;11.63;;;17.50;99.90;;;;;;5095363;27;20225;-48
2021/09/06 09:28:27;;;;;;;18.87;10.90;;;17.60;99.90;;;;;;5101036;27;20232;-49
2021/09/06 09:31:19;;;;;;;14.00;10.53;;;17.70;99.90;;;;;;5091146;27;20210;-47
2021/09/06 09:33:51;;;;;;;13.43;11.17;;;17.90;99.90;;;;;;5113745;27;20213;-52
2021/09/06 09:36:41;;;;;;;15.53;10.57;;;18.00;99.90;;;;;;5119627;27;20211;-44
2021/09/06 09:39:09;;;;;;;16.03;11.30;;;18.10;99.90;;;;;;5100604;27;20424;-48
2021/09/06 09:41:36;;;;;;;13.40;10.23;;;18.10;99.90;;;;;;5118002;27;20224;-50
2021/09/06 09:44:11;;;;;;;16.70;10.43;;;18.20;99.90;;;;;;5117471;27;20204;-46
2021/09/06 09:46:53;;;;;;;13.10;10.20;;;18.30;99.90;;;;;;5118331;27;20192;-43
2021/09/06 09:49:22;;;;;;;14.77;10.73;;;18.40;99.90;;;;;;5121371;27;20512;-53
2021/09/06 09:51:49;;;;;;;14.43;10.70;;;18.50;99.90;;;;;;5119602;27;20200;-44
2021/09/06 09:54:17;;;;;;;14.77;10.17;;;18.50;99.90;;;;;;5112648;27;20216;-50
2021/09/06 09:56:45;;;;;;;13.70;10.80;;;18.70;99.90;;;;;;5104524;27;20217;-44
2021/09/06 09:59:14;;;;;;;13.60;11.30;;;18.70;99.90;;;;;;5117437;27;20236;-52
2021/09/06 10:01:43;;;;;;;16.23;10.40;;;18.80;99.90;;;;;;5111916;27;20212;-50
2021/09/06 10:04:13;;;;;;;13.67;9.70;;;18.90;99.90;;;;;;5111997;27;21285;-47
2021/09/06 10:06:43;;;;;;;15.57;11.53;;;19.00;99.90;;;;;;5107731;27;20609;-47
2021/09/06 10:09:14;;;;;;;22.23;11.77;;;19.00;99.90;;;;;;5105733;27;20201;-47
2021/09/06 10:11:44;;;;;;;13.47;9.90;;;19.10;99.90;;;;;;5106478;27;20205;-48
2021/09/06 10:14:16;;;;;;;15.13;11.23;;;19.10;99.90;;;;;;5115898;27;20958;-43
2021/09/06 10:16:43;;;;;;;15.93;10.87;;;19.10;99.90;;;;;;5125903;27;20191;-47
2021/09/06 10:19:12;;;;;;;17.40;12.27;;;19.10;99.90;;;;;;5116720;27;20209;-45
2021/09/06 10:21:48;;;;;;;15.03;10.97;;;19.10;99.90;;;;;;5126825;27;20212;-45
2021/09/06 10:24:17;;;;;;;14.90;10.43;;;19.00;99.90;;;;;;5114494;27;20247;-47
2021/09/06 10:26:45;;;;;;;14.93;11.07;;;19.00;99.90;;;;;;5116149;27;20189;-49
2021/09/06 10:29:19;;;;;;;15.47;10.20;;;19.00;99.90;;;;;;5109633;27;20236;-51
2021/09/06 10:31:58;;;;;;;15.33;11.17;;;19.10;99.90;;;;;;5111398;27;20186;-45
2021/09/06 10:34:29;;;;;;;16.60;10.90;;;19.20;99.90;;;;;;5125177;27;20316;-47
2021/09/06 10:37:03;;;;;;;18.40;11.10;;;19.30;99.90;;;;;;5113993;27;20270;-48
2021/09/06 10:39:32;;;;;;;15.73;10.90;;;19.20;99.90;;;;;;5108305;27;20283;-46
2021/09/06 10:42:07;;;;;;;16.00;10.40;;;19.20;99.90;;;;;;5103133;27;20308;-50
2021/09/06 10:44:37;;;;;;;13.47;10.20;;;19.30;99.90;;;;;;5123033;27;20298;-47
2021/09/06 10:47:10;;;;;;;13.27;10.07;;;19.30;99.90;;;;;;5116754;27;20300;-47
2021/09/06 10:49:41;;;;;;;15.70;10.10;;;19.30;99.90;;;;;;5107258;27;20201;-48
2021/09/06 10:52:11;;;;;;;12.60;9.60;;;19.20;99.90;;;;;;5108590;27;20914;-49
2021/09/06 10:54:39;;;;;;;11.57;9.47;;;19.20;99.90;;;;;;5116801;27;20313;-47
2021/09/06 10:57:07;;;;;;;15.30;10.70;;;19.30;99.90;;;;;;5114281;27;20199;-44
2021/09/06 10:59:35;;;;;;;13.83;10.43;;;19.40;99.90;;;;;;5110234;27;20201;-44
2021/09/06 11:02:06;;;;;;;12.67;10.37;;;19.40;99.90;;;;;;5121959;27;20274;-51
2021/09/06 11:04:34;;;;;;;14.00;9.93;;;19.50;99.90;;;;;;5114790;27;20233;-50
2021/09/06 11:07:03;;;;;;;14.00;10.23;;;19.50;99.90;;;;;;5100447;27;20185;-46
2021/09/06 11:09:36;;;;;;;11.90;9.83;;;19.50;99.90;;;;;;5104750;27;20189;-46
2021/09/06 11:12:06;;;;;;;16.63;10.13;;;19.40;99.90;;;;;;5104344;27;20205;-48
2021/09/06 11:14:39;;;;;;;14.00;10.37;;;19.30;99.90;;;;;;5106964;27;20231;-47
2021/09/06 11:17:22;;;;;;;11.63;9.47;;;19.30;99.90;;;;;;5115824;27;20203;-48
2021/09/06 11:19:51;;;;;;;15.27;9.97;;;19.40;99.90;;;;;;5105718;27;20197;-51
2021/09/06 11:22:21;;;;;;;14.10;9.63;;;19.40;99.90;;;;;;5136025;27;20215;-47
2021/09/06 11:24:55;;;;;;;11.30;9.67;;;19.50;99.90;;;;;;5121578;27;20303;-49
2021/09/06 11:27:28;;;;;;;13.27;10.47;;;19.60;99.90;;;;;;5115870;27;20196;-48
2021/09/06 11:29:55;;;;;;;12.87;9.60;;;19.80;99.90;;;;;;5105738;27;20197;-51
2021/09/06 11:32:22;;;;;;;10.93;9.70;;;19.70;99.90;;;;;;5123963;27;20282;-45
2021/09/06 11:34:49;;;;;;;12.73;9.43;;;19.70;99.90;;;;;;5108052;27;20213;-48
2021/09/06 11:37:18;;;;;;;12.57;9.13;;;19.70;99.90;;;;;;5109853;27;20201;-47
2021/09/06 11:39:44;;;;;;;11.63;8.40;;;19.60;99.90;;;;;;5113253;27;20275;-47
2021/09/06 11:42:13;;;;;;;13.00;8.83;;;19.70;99.90;;;;;;5112736;27;20212;-48
2021/09/06 11:44:40;;;;;;;10.67;9.53;;;19.80;99.90;;;;;;5098029;27;20225;-49
2021/09/06 11:47:07;;;;;;;11.30;8.97;;;19.90;99.90;;;;;;5132303;27;20200;-45
2021/09/06 11:49:34;;;;;;;11.33;8.20;;;19.90;99.90;;;;;;5108193;27;20200;-47
2021/09/06 11:52:09;;;;;;;10.60;8.87;;;19.90;99.90;;;;;;5112810;27;20569;-48
2021/09/06 11:54:43;;;;;;;9.63;8.43;;;19.90;99.90;;;;;;5108580;27;20303;-47
2021/09/06 11:57:11;;;;;;;11.67;9.13;;;19.90;99.90;;;;;;5108715;27;20207;-49
2021/09/06 11:59:40;;;;;;;12.13;9.30;;;19.90;99.90;;;;;;5111162;27;20203;-43
2021/09/06 12:02:12;;;;;;;11.40;9.20;;;19.90;99.90;;;;;;5103734;27;20219;-44
2021/09/06 12:04:39;;;;;;;11.03;9.13;;;19.80;99.90;;;;;;5112270;27;20237;-54
2021/09/06 12:07:15;;;;;;;11.03;8.23;;;19.80;99.90;;;;;;5116205;27;20189;-45
2021/09/06 12:09:42;;;;;;;9.87;8.50;;;19.90;99.90;;;;;;5106922;27;20196;-48
2021/09/06 12:12:20;;;;;;;10.03;8.47;;;20.00;99.90;;;;;;5110413;27;20207;-51
2021/09/06 12:14:50;;;;;;;13.23;8.07;;;20.20;99.90;;;;;;5104059;27;20364;-48
2021/09/06 12:17:18;;;;;;;10.53;8.00;;;20.40;99.90;;;;;;5110878;27;20204;-45
2021/09/06 12:19:48;;;;;;;9.03;8.07;;;20.50;99.90;;;;;;5108351;27;20322;-45
2021/09/06 12:22:17;;;;;;;10.17;8.40;;;20.50;99.90;;;;;;5112569;27;20681;-44
2021/09/06 12:24:44;;;;;;;10.03;8.10;;;20.50;99.90;;;;;;5109877;27;20924;-46
2021/09/06 12:27:12;;;;;;;9.00;7.87;;;20.50;99.90;;;;;;5112019;27;20270;-48
2021/09/06 12:29:40;;;;;;;9.47;8.00;;;20.70;99.90;;;;;;5102748;27;20204;-43
2021/09/06 12:32:12;;;;;;;11.87;8.00;;;20.80;99.90;;;;;;5104673;27;20199;-49
2021/09/06 12:34:39;;;;;;;10.47;7.70;;;21.00;99.90;;;;;;5112203;27;20221;-50
2021/09/06 12:37:06;;;;;;;12.57;8.57;;;20.90;99.90;;;;;;5118795;27;20196;-48
2021/09/06 12:39:34;;;;;;;11.43;8.27;;;20.70;99.90;;;;;;5114583;27;20203;-47
2021/09/06 12:42:01;;;;;;;8.43;7.23;;;20.70;99.90;;;;;;5114325;27;20209;-46
2021/09/06 12:44:30;;;;;;;8.80;7.43;;;20.70;99.90;;;;;;5106549;27;20216;-48
2021/09/06 12:46:57;;;;;;;10.32;7.72;;;20.80;99.90;;;;;;5101422;27;20208;-48